Ogunquit, ME

12:50 PM EDT on July 29, 2016 (GMT -0400)
Footbridge Beach | | Change Station

Elev 10 ft 43.26 °N, 70.59 °W | Updated 6 minutes ago

Overcast
Overcast
72.3 °F
Feels Like 71 °F
N
1.7
Wind Variable Wind from North

Today
High -- | Low -- °F
--% Chance of Precip.
Yesterday
High -- | Low -- °F
Precip. -- in
Pressure 29.88 in
Visibility 10.0 miles
Clouds Few 6000 ft
Mostly Cloudy 9000 ft
Overcast 20000 ft
Heat Index 71 °F
Dew Point 68 °F
Humidity 87%
Rainfall 0.57 in
Snow Depth Not available.
5:29 AM 8:07 PM
Waning Crescent, 20% visible
METAR KPSM 291558Z 02005KT 10SM FEW060 BKN090 OVC200 24/20 A2987 RMK AO2A RAE22 SLP117 P0000 T02360199
Pressure 29.88 in
Visibility 10.0 miles
Clouds Few 6000 ft
Mostly Cloudy 9000 ft
Overcast 20000 ft
Heat Index 71 °F
Dew Point 68 °F
Humidity 87%
Rainfall 0.57 in
Snow Depth Not available.
5:29 AM 8:07 PM
Waning Crescent, 20% visible
METAR KPSM 291558Z 02005KT 10SM FEW060 BKN090 OVC200 24/20 A2987 RMK AO2A RAE22 SLP117 P0000 T02360199

10-Day Weather Forecast

Almanac

Astronomy

Jul. 29, 2016 Rise Set
Actual Time
Civil Twilight
Nautical Twilight
Astronomical Twilight
Moon
Length of Visible Light
Length of Day
Tomorrow will be .
, % of the Moon is Illuminated

Today's Extremes

State Highs State Lows

Community

WunderPhotos

Upload Photos

1,928,378 photos uploaded!

WunderBlog® & News

Nearby

Air Quality

  Air Quality AQ Index Pollutant
Not available.

Snow Depth

Station Depth Elevation

Earthquake Activity

City Distance Mag. Time & Date
Minimum magnitude displayed is 2.5.

Coastal Water Temperatures

Place Temperature

Stations

Nearby Weather Stations

Station Location Temp. Windchill Dew Point Humidity Wind Precip. Elev Updated Type
                   

Watches & Warnings

There are currently no watches in effect.